Veuillez saisir l'adresse e-mail associée à votre compte d'utilisateur. Votre identifiant vous sera envoyé à cette adresse.

METAR TAF

[Source: ADDS]
METAR
LFCR 242230Z AUTO 27012KT 9999 BKN014/// OVC020/// ///TCU 12/11 Q1009 TEMPO 3000 SHRA BKN008 BKN020 FEW030CB BECMG 27018G28KT =
LFCR 241700Z 2418/2518 27008KT 9999 SCT020TCU BKN045 BECMG 2422/2423 27018G28KT TEMPO 2421/2503 3000 SHRA BKN008 BKN020 FEW030CB BECMG 2503/2506 OVC006 TEMPO 2503/2509 3000 -RA BECMG 2510/2512 BKN012TCU PROB40 TEMPO 2515/2518 33018G30KT 3000 SHRA LFBA 242230Z AUTO 29007KT 9999 -RA FEW034/// SCT056/// BKN068/// ///CB 13/11 Q1011 =
LFBA 241400Z 2415/2424 27010KT 9999 SCT020 BKN040 PROB40 TEMPO 2418/2421 30020G40KT 2000 TSRA BKN005 BKN015CB TEMPO 2421/2424 30015G30KT 4000 SHRA BKN010 BKN015TCU LFSL 242230Z AUTO 28005KT 190V330 9999 -RA NSC 11/09 Q1009 =
LFSL 241400Z 2415/2424 20006KT 9999 SCT012TCU BKN040 TEMPO 2415/2424 4000 SHRA BKN008 FEW025CB PROB40 TEMPO 2418/2424 24015G25KT 2000 PROB30 TEMPO 2418/2422 26020G35KT TSRA LFLW 242200Z AUTO 27010KT 230V310 4600 RA BR FEW010/// BKN016/// BKN028/// ///CB 11/10 Q1009 =
AMD LFLW 241558Z 2415/2424 26008KT 9999 SCT013TCU BKN035 TEMPO 2415/2424 2500 SHRA FEW006 BKN012 FEW025CB PROB40 TEMPO 2420/2424 26015G25KT 1200
TAF
LFCR 241700Z 2418/2518 27008KT 9999 SCT020TCU BKN045 BECMG 2422/2423 27018G28KT TEMPO 2421/2503 3000 SHRA BKN008 BKN020 FEW030CB BECMG 2503/2506 OVC006 TEMPO 2503/2509 3000 -RA BECMG 2510/2512 BKN012TCU PROB40 TEMPO 2515/2518 33018G30KT 3000 SHRA =
LFBA 241400Z 2415/2424 27010KT 9999 SCT020 BKN040 PROB40 TEMPO 2418/2421 30020G40KT 2000 TSRA BKN005 BKN015CB TEMPO 2421/2424 30015G30KT 4000 SHRA BKN010 BKN015TCU =
LFSL 241400Z 2415/2424 20006KT 9999 SCT012TCU BKN040 TEMPO 2415/2424 4000 SHRA BKN008 FEW025CB PROB40 TEMPO 2418/2424 24015G25KT 2000 PROB30 TEMPO 2418/2422 26020G35KT TSRA =
AMD LFLW 241558Z 2415/2424 26008KT 9999 SCT013TCU BKN035 TEMPO 2415/2424 2500 SHRA FEW006 BKN012 FEW025CB PROB40 TEMPO 2420/2424 26015G25KT 1200 =
SR / SS: 05:44 / 17:47 UTC (LFCC 2020-09-24)